createdAt,value
2022-08-17T00:00:42.723Z,99.90
2022-08-17T00:03:13.554Z,99.90
2022-08-17T00:05:45.161Z,99.90
2022-08-17T00:08:15.509Z,99.90
2022-08-17T00:10:45.073Z,99.90
2022-08-17T00:13:17.732Z,99.90
2022-08-17T00:15:47.228Z,99.90
2022-08-17T00:18:53.823Z,99.90
2022-08-17T00:21:10.513Z,99.90
2022-08-17T00:23:44.479Z,99.90
2022-08-17T00:26:37.494Z,99.90
2022-08-17T00:29:08.539Z,99.90
2022-08-17T00:31:37.806Z,99.90
2022-08-17T00:34:09.219Z,99.90
2022-08-17T00:36:38.034Z,99.90
2022-08-17T00:39:06.884Z,99.90
2022-08-17T00:41:35.953Z,99.90
2022-08-17T00:44:09.779Z,99.90
2022-08-17T00:46:40.989Z,99.90
2022-08-17T00:49:12.807Z,99.90
2022-08-17T00:51:46.714Z,99.90
2022-08-17T00:54:19.981Z,99.90
2022-08-17T00:56:53.524Z,99.90
2022-08-17T00:59:26.143Z,99.90
2022-08-17T01:01:55.041Z,99.90
2022-08-17T01:04:26.122Z,99.90
2022-08-17T01:06:55.005Z,99.90
2022-08-17T01:09:24.172Z,99.90
2022-08-17T01:11:54.030Z,99.90
2022-08-17T01:14:24.975Z,99.90
2022-08-17T01:16:56.210Z,99.90
2022-08-17T01:19:28.944Z,99.90
2022-08-17T01:22:06.005Z,99.90
2022-08-17T01:24:37.212Z,99.90
2022-08-17T01:27:10.399Z,99.90
2022-08-17T01:29:41.207Z,99.90
2022-08-17T01:32:10.636Z,99.90
2022-08-17T01:34:42.685Z,99.90
2022-08-17T01:37:19.835Z,99.90
2022-08-17T01:39:53.708Z,99.90
2022-08-17T01:42:27.033Z,99.90
2022-08-17T01:45:03.470Z,99.90
2022-08-17T01:47:32.525Z,99.90
2022-08-17T01:50:11.112Z,99.90
2022-08-17T01:52:41.513Z,99.90
2022-08-17T01:55:12.331Z,99.90
2022-08-17T01:57:42.513Z,99.90
2022-08-17T02:00:11.740Z,99.90
2022-08-17T02:02:40.229Z,99.90
2022-08-17T02:05:09.885Z,99.90
2022-08-17T02:07:59.663Z,99.90
2022-08-17T02:10:33.666Z,99.90
2022-08-17T02:13:04.267Z,99.90
2022-08-17T02:15:34.694Z,99.90
2022-08-17T02:18:03.236Z,99.90
2022-08-17T02:20:41.592Z,99.90
2022-08-17T02:23:14.445Z,99.90
2022-08-17T02:25:47.741Z,99.90
2022-08-17T02:28:16.409Z,99.90
2022-08-17T02:30:59.427Z,99.90
2022-08-17T02:33:41.784Z,99.90
2022-08-17T02:36:13.152Z,99.90
2022-08-17T02:38:42.459Z,99.90
2022-08-17T02:41:13.086Z,99.90
2022-08-17T02:43:41.885Z,99.90
2022-08-17T02:46:12.712Z,99.90
2022-08-17T02:48:41.292Z,99.90
2022-08-17T02:51:09.812Z,99.90
2022-08-17T02:53:38.453Z,99.90
2022-08-17T02:56:07.445Z,99.90
2022-08-17T02:58:37.311Z,99.90
2022-08-17T03:01:07.099Z,99.90
2022-08-17T03:03:36.836Z,99.90
2022-08-17T03:06:07.782Z,99.90
2022-08-17T03:08:38.245Z,99.90
2022-08-17T03:11:06.731Z,99.90
2022-08-17T03:13:36.652Z,99.90
2022-08-17T03:16:05.502Z,99.90
2022-08-17T03:18:34.326Z,99.90
2022-08-17T03:21:04.609Z,99.90
2022-08-17T03:23:33.992Z,99.90
2022-08-17T03:26:02.909Z,99.90
2022-08-17T03:28:31.937Z,99.90
2022-08-17T03:31:01.827Z,99.90
2022-08-17T03:33:30.898Z,99.90
2022-08-17T03:36:00.096Z,99.90
2022-08-17T03:38:28.783Z,99.90
2022-08-17T03:41:08.226Z,99.90
2022-08-17T03:43:36.943Z,99.90
2022-08-17T03:46:39.121Z,99.90
2022-08-17T03:49:27.466Z,99.90
2022-08-17T03:52:14.449Z,99.90
2022-08-17T03:55:01.522Z,99.90
2022-08-17T03:57:30.720Z,99.90
2022-08-17T03:59:59.822Z,99.90
2022-08-17T04:02:31.934Z,99.90
2022-08-17T04:05:00.960Z,99.90
2022-08-17T04:07:31.825Z,99.90
2022-08-17T04:10:00.549Z,99.90
2022-08-17T04:12:31.116Z,99.90
2022-08-17T04:15:00.041Z,99.90
2022-08-17T04:17:32.695Z,99.90
2022-08-17T04:20:02.200Z,99.90
2022-08-17T04:22:34.212Z,99.90
2022-08-17T04:25:15.019Z,99.90
2022-08-17T04:27:43.583Z,99.90
2022-08-17T04:30:13.644Z,99.90
2022-08-17T04:33:06.185Z,99.90
2022-08-17T04:35:38.870Z,99.90
2022-08-17T04:38:08.263Z,99.90
2022-08-17T04:40:54.981Z,99.90
2022-08-17T04:43:27.331Z,99.90
2022-08-17T04:45:58.484Z,99.90
2022-08-17T04:48:36.512Z,99.90
2022-08-17T04:51:09.553Z,99.90
2022-08-17T04:53:38.943Z,99.90
2022-08-17T04:56:07.900Z,99.90
2022-08-17T04:58:40.577Z,99.90
2022-08-17T05:01:09.243Z,99.90
2022-08-17T05:03:39.329Z,99.90
2022-08-17T05:06:08.177Z,99.90
2022-08-17T05:08:36.863Z,99.90
2022-08-17T05:11:05.433Z,99.90
2022-08-17T05:13:33.960Z,99.90
2022-08-17T05:16:04.569Z,99.90
2022-08-17T05:18:33.779Z,99.90
2022-08-17T05:21:04.023Z,99.90
2022-08-17T05:23:41.642Z,99.90
2022-08-17T05:26:13.562Z,99.90
2022-08-17T05:28:57.317Z,99.90
2022-08-17T05:31:28.966Z,99.90
2022-08-17T05:33:57.693Z,99.90
2022-08-17T05:36:41.831Z,99.90
2022-08-17T05:39:15.738Z,99.90
2022-08-17T05:41:48.828Z,99.90
2022-08-17T05:44:18.058Z,99.90
2022-08-17T05:46:51.976Z,99.90
2022-08-17T05:49:27.260Z,99.90
2022-08-17T05:52:19.817Z,99.90
2022-08-17T05:55:07.337Z,99.90
2022-08-17T05:57:52.895Z,99.90
2022-08-17T06:00:26.340Z,99.90
2022-08-17T06:03:16.587Z,99.90
2022-08-17T06:06:00.025Z,99.90
2022-08-17T06:08:36.442Z,99.90
2022-08-17T06:11:18.254Z,99.90
2022-08-17T06:14:14.173Z,99.90
2022-08-17T06:16:45.621Z,99.90
2022-08-17T06:19:18.709Z,99.90
2022-08-17T06:21:50.153Z,99.90
2022-08-17T06:24:29.120Z,99.90
2022-08-17T06:27:05.312Z,99.90
2022-08-17T06:29:44.065Z,99.90
2022-08-17T06:32:14.714Z,99.90
2022-08-17T06:34:44.843Z,99.90
2022-08-17T06:37:34.449Z,99.90
2022-08-17T06:40:20.396Z,99.90
2022-08-17T06:43:06.657Z,99.90
2022-08-17T06:45:43.177Z,99.90
2022-08-17T06:48:17.141Z,99.90
2022-08-17T06:50:50.216Z,99.90
2022-08-17T06:53:25.934Z,99.90
2022-08-17T06:56:01.375Z,99.90
2022-08-17T06:58:31.592Z,99.90
2022-08-17T07:01:07.039Z,99.90
2022-08-17T07:03:40.834Z,99.90
2022-08-17T07:06:14.663Z,99.90
2022-08-17T07:08:52.281Z,99.90
2022-08-17T07:11:28.666Z,99.90
2022-08-17T07:14:05.313Z,99.90
2022-08-17T07:16:39.800Z,99.90
2022-08-17T07:19:11.021Z,99.90
2022-08-17T07:21:51.730Z,99.90
2022-08-17T07:24:33.239Z,99.90
2022-08-17T07:27:10.778Z,99.90
2022-08-17T07:29:44.111Z,99.90
2022-08-17T07:32:18.395Z,99.90
2022-08-17T07:35:19.929Z,99.90
2022-08-17T07:37:54.245Z,99.90
2022-08-17T07:40:29.631Z,99.90
2022-08-17T07:43:23.403Z,99.90
2022-08-17T07:46:17.168Z,99.90
2022-08-17T07:48:50.799Z,99.90
2022-08-17T07:51:25.273Z,99.90
2022-08-17T07:54:12.900Z,99.90
2022-08-17T07:56:46.582Z,99.90
2022-08-17T07:59:21.837Z,99.90
2022-08-17T08:02:06.267Z,99.90
2022-08-17T08:07:31.987Z,99.90
2022-08-17T08:10:05.175Z,99.90
2022-08-17T08:12:36.808Z,99.90
2022-08-17T08:15:13.600Z,99.90
2022-08-17T08:17:53.389Z,99.90
2022-08-17T08:20:51.127Z,99.90
2022-08-17T08:23:26.672Z,99.70
2022-08-17T08:26:08.371Z,99.70
2022-08-17T08:28:45.043Z,99.50
2022-08-17T08:31:25.336Z,99.90
2022-08-17T08:34:06.618Z,99.90
2022-08-17T08:37:14.160Z,99.70
2022-08-17T08:39:48.554Z,99.50
2022-08-17T08:42:26.201Z,99.20
2022-08-17T08:45:04.792Z,99.20
2022-08-17T08:48:05.897Z,99.70
2022-08-17T08:50:49.439Z,99.50
2022-08-17T08:53:30.969Z,99.60
2022-08-17T08:56:07.761Z,99.50
2022-08-17T08:58:50.824Z,99.00
2022-08-17T09:01:27.591Z,98.80
2022-08-17T09:04:25.063Z,98.80
2022-08-17T09:07:09.600Z,98.30
2022-08-17T09:09:50.800Z,98.80
2022-08-17T09:12:30.131Z,98.60
2022-08-17T09:15:02.518Z,98.70
2022-08-17T09:17:38.600Z,97.00
2022-08-17T09:20:27.354Z,97.90
2022-08-17T09:23:04.035Z,98.10
2022-08-17T09:25:40.692Z,98.80
2022-08-17T09:28:19.329Z,98.80
2022-08-17T09:30:51.005Z,98.10
2022-08-17T09:33:26.268Z,98.50
2022-08-17T09:36:01.515Z,98.50
2022-08-17T09:38:36.470Z,98.40
2022-08-17T09:41:14.394Z,98.40
2022-08-17T09:43:54.097Z,97.90
2022-08-17T09:46:26.265Z,97.60
2022-08-17T09:49:03.792Z,97.60
2022-08-17T09:51:40.187Z,97.40
2022-08-17T09:54:37.961Z,97.10
2022-08-17T09:57:31.444Z,97.00
2022-08-17T10:00:16.600Z,97.00
2022-08-17T10:03:08.773Z,95.70
2022-08-17T10:05:46.656Z,94.70
2022-08-17T10:08:29.470Z,94.90
2022-08-17T10:11:12.691Z,95.40
2022-08-17T10:13:52.681Z,95.70
2022-08-17T10:16:31.840Z,96.10
2022-08-17T10:19:14.946Z,96.10
2022-08-17T10:22:32.528Z,95.90
2022-08-17T10:25:22.605Z,95.10
2022-08-17T10:27:56.011Z,95.80
2022-08-17T10:30:27.693Z,95.90
2022-08-17T10:32:59.323Z,95.70
2022-08-17T10:35:42.416Z,95.80
2022-08-17T10:38:30.437Z,95.60
2022-08-17T10:41:07.121Z,95.80
2022-08-17T10:43:58.926Z,96.30
2022-08-17T10:47:07.222Z,96.30
2022-08-17T10:49:36.985Z,96.30
2022-08-17T10:52:37.290Z,95.50
2022-08-17T10:55:15.114Z,95.40
2022-08-17T10:57:47.488Z,96.20
2022-08-17T11:00:59.662Z,96.30
2022-08-17T11:03:28.670Z,96.40
2022-08-17T11:06:15.434Z,96.80
2022-08-17T11:09:11.947Z,97.60
2022-08-17T11:12:11.534Z,97.10
2022-08-17T11:15:13.302Z,96.90
2022-08-17T11:18:01.717Z,96.50
2022-08-17T11:20:54.832Z,97.60
2022-08-17T11:23:57.057Z,97.20
2022-08-17T11:26:29.705Z,96.80
2022-08-17T11:29:01.645Z,96.30
2022-08-17T11:31:39.861Z,96.60
2022-08-17T11:34:19.920Z,96.00
2022-08-17T11:37:42.355Z,95.90
2022-08-17T11:40:34.474Z,96.30
2022-08-17T11:43:38.372Z,96.50
2022-08-17T11:46:19.840Z,97.30
2022-08-17T11:49:20.161Z,97.40
2022-08-17T11:52:10.557Z,97.30
2022-08-17T11:54:45.223Z,97.90
2022-08-17T11:57:54.592Z,98.00
2022-08-17T12:00:56.497Z,97.80
2022-08-17T12:03:55.783Z,97.80
2022-08-17T12:06:42.730Z,97.80
2022-08-17T12:09:17.507Z,97.40
2022-08-17T12:11:55.543Z,97.70
2022-08-17T12:15:09.016Z,97.70
2022-08-17T12:17:39.635Z,97.60
2022-08-17T12:20:16.399Z,96.70
2022-08-17T12:22:54.969Z,97.00
2022-08-17T12:25:33.180Z,96.90
2022-08-17T12:28:05.067Z,96.60
2022-08-17T12:30:36.761Z,96.90
2022-08-17T12:33:12.527Z,96.60
2022-08-17T12:35:43.548Z,96.00
2022-08-17T12:38:32.407Z,96.60
2022-08-17T12:41:24.712Z,96.20
2022-08-17T12:44:02.499Z,96.20
2022-08-17T12:46:35.065Z,96.40
2022-08-17T12:49:31.571Z,96.40
2022-08-17T12:52:25.147Z,96.10
2022-08-17T12:54:57.960Z,96.70
2022-08-17T12:57:29.432Z,96.90
2022-08-17T13:00:00.964Z,97.00
2022-08-17T13:02:33.899Z,96.20
2022-08-17T13:05:03.261Z,96.20
2022-08-17T13:07:43.800Z,96.40
2022-08-17T13:10:22.743Z,96.20
2022-08-17T13:12:52.602Z,96.10
2022-08-17T13:15:31.903Z,96.20
2022-08-17T13:18:06.204Z,96.10
2022-08-17T13:20:37.317Z,96.50
2022-08-17T13:23:12.559Z,96.30
2022-08-17T13:25:41.468Z,96.10
2022-08-17T13:28:35.710Z,95.70
2022-08-17T13:31:32.782Z,95.60
2022-08-17T13:34:15.574Z,94.40
2022-08-17T13:36:47.041Z,94.00
2022-08-17T13:39:21.356Z,93.40
2022-08-17T13:41:56.193Z,93.50
2022-08-17T13:44:37.177Z,94.30
2022-08-17T13:47:07.834Z,93.50
2022-08-17T13:49:48.210Z,93.20
2022-08-17T13:52:34.783Z,91.90
2022-08-17T13:55:07.863Z,92.20
2022-08-17T13:57:37.435Z,91.40
2022-08-17T14:00:12.979Z,91.40
2022-08-17T14:02:42.807Z,91.40
2022-08-17T14:05:11.387Z,91.50
2022-08-17T14:07:41.172Z,91.40
2022-08-17T14:10:16.259Z,91.20
2022-08-17T14:12:46.708Z,90.80
2022-08-17T14:15:18.304Z,90.00
2022-08-17T14:17:49.198Z,89.10
2022-08-17T14:20:20.739Z,88.90
2022-08-17T14:22:52.266Z,89.10
2022-08-17T14:25:25.288Z,89.80
2022-08-17T14:27:54.241Z,89.80
2022-08-17T14:30:29.977Z,89.50
2022-08-17T14:32:59.626Z,87.50
2022-08-17T14:35:29.598Z,86.80
2022-08-17T14:37:58.650Z,87.50
2022-08-17T14:40:29.975Z,86.90
2022-08-17T14:42:59.367Z,84.90
2022-08-17T14:45:31.798Z,84.10
2022-08-17T14:48:04.239Z,82.50
2022-08-17T14:50:35.847Z,82.80
2022-08-17T14:53:05.600Z,86.40
2022-08-17T14:55:36.990Z,86.10
2022-08-17T14:58:07.143Z,84.50
2022-08-17T15:00:36.806Z,84.30
2022-08-17T15:03:06.128Z,84.50
2022-08-17T15:05:37.083Z,83.50
2022-08-17T15:08:06.725Z,82.60
2022-08-17T15:10:37.449Z,83.00
2022-08-17T15:13:06.509Z,83.90
2022-08-17T15:15:35.096Z,85.40
2022-08-17T15:18:04.211Z,85.60
2022-08-17T15:20:33.438Z,86.10
2022-08-17T15:23:02.038Z,85.20
2022-08-17T15:25:33.346Z,87.10
2022-08-17T15:28:03.613Z,87.30
2022-08-17T15:30:32.751Z,87.10
2022-08-17T15:33:02.185Z,88.20
2022-08-17T15:35:33.608Z,87.80
2022-08-17T15:38:11.130Z,87.50
2022-08-17T15:40:44.229Z,87.90
2022-08-17T15:43:17.656Z,87.90
2022-08-17T15:45:58.643Z,88.80
2022-08-17T15:48:41.624Z,88.50
2022-08-17T15:51:12.481Z,88.20
2022-08-17T15:53:43.652Z,87.60
2022-08-17T15:56:13.752Z,86.60
2022-08-17T15:58:45.290Z,85.80
2022-08-17T16:01:18.862Z,85.60
2022-08-17T16:04:26.387Z,87.10
2022-08-17T16:06:53.370Z,87.50
2022-08-17T16:09:21.901Z,87.50
2022-08-17T16:11:53.685Z,87.00
2022-08-17T16:14:32.533Z,88.10
2022-08-17T16:17:04.698Z,87.00
2022-08-17T16:19:34.460Z,87.10
2022-08-17T16:22:04.077Z,89.10
2022-08-17T16:24:33.103Z,89.20
2022-08-17T16:27:01.969Z,89.20
2022-08-17T16:29:32.039Z,88.80
2022-08-17T16:32:08.978Z,88.60
2022-08-17T16:34:37.615Z,90.00
2022-08-17T16:37:06.265Z,90.00
2022-08-17T16:39:35.728Z,89.90
2022-08-17T16:42:05.416Z,90.00
2022-08-17T16:44:35.419Z,89.10
2022-08-17T16:47:04.343Z,87.40
2022-08-17T16:49:37.281Z,88.10
2022-08-17T16:52:10.415Z,89.40
2022-08-17T16:54:40.680Z,90.50
2022-08-17T16:57:09.206Z,90.40
2022-08-17T16:59:43.748Z,90.70
2022-08-17T17:02:16.778Z,90.80
2022-08-17T17:04:52.028Z,91.00
2022-08-17T17:07:38.945Z,91.50
2022-08-17T17:10:11.280Z,91.60
2022-08-17T17:13:02.162Z,91.90
2022-08-17T17:15:44.410Z,92.20
2022-08-17T17:18:15.579Z,92.80
2022-08-17T17:20:53.634Z,93.70
2022-08-17T17:23:37.250Z,94.30
2022-08-17T17:26:17.488Z,95.00
2022-08-17T17:28:57.319Z,94.90
2022-08-17T17:31:34.075Z,94.80
2022-08-17T17:34:06.373Z,94.80
2022-08-17T17:36:41.291Z,93.80
2022-08-17T17:39:14.585Z,94.40
2022-08-17T17:41:48.433Z,95.00
2022-08-17T17:44:21.238Z,95.10
2022-08-17T17:46:55.843Z,95.50
2022-08-17T17:49:25.253Z,95.70
2022-08-17T17:52:14.447Z,96.00
2022-08-17T17:55:03.437Z,96.40
2022-08-17T17:57:44.991Z,96.70
2022-08-17T18:00:19.663Z,97.10
2022-08-17T18:03:05.938Z,97.60
2022-08-17T18:05:53.243Z,98.00
2022-08-17T18:08:35.463Z,98.60
2022-08-17T18:11:24.093Z,99.00
2022-08-17T18:14:14.525Z,99.40
2022-08-17T18:16:44.151Z,99.90
2022-08-17T18:19:16.103Z,99.90
2022-08-17T18:21:50.099Z,99.90
2022-08-17T18:24:30.839Z,99.90
2022-08-17T18:27:01.078Z,99.90
2022-08-17T18:29:39.087Z,99.90
2022-08-17T18:32:31.298Z,99.90
2022-08-17T18:35:28.393Z,99.90
2022-08-17T18:38:20.398Z,99.90
2022-08-17T18:41:00.165Z,99.90
2022-08-17T18:43:44.222Z,99.90
2022-08-17T18:46:30.495Z,99.90
2022-08-17T18:49:07.675Z,99.90
2022-08-17T18:51:41.493Z,99.90
2022-08-17T18:54:22.383Z,99.90
2022-08-17T18:56:54.269Z,99.90
2022-08-17T18:59:39.387Z,99.90
2022-08-17T19:02:37.322Z,99.90
2022-08-17T19:05:13.700Z,99.90
2022-08-17T19:07:46.253Z,99.90
2022-08-17T19:10:24.711Z,99.90
2022-08-17T19:13:00.145Z,99.90
2022-08-17T19:15:35.676Z,99.90
2022-08-17T19:18:15.085Z,99.90
2022-08-17T19:20:49.011Z,99.90
2022-08-17T19:23:25.151Z,99.90
2022-08-17T19:25:58.525Z,99.90
2022-08-17T19:28:31.555Z,99.90
2022-08-17T19:31:09.886Z,99.90
2022-08-17T19:33:39.269Z,99.90
2022-08-17T19:36:11.294Z,99.90
2022-08-17T19:38:53.177Z,99.90
2022-08-17T19:41:26.214Z,99.90
2022-08-17T19:44:15.271Z,99.90
2022-08-17T19:46:56.369Z,99.90
2022-08-17T19:49:45.719Z,99.90
2022-08-17T19:52:32.147Z,99.90
2022-08-17T19:55:07.539Z,99.90
2022-08-17T19:57:46.974Z,99.90
2022-08-17T20:00:18.388Z,99.90
2022-08-17T20:02:55.257Z,99.90
2022-08-17T20:06:00.955Z,99.90
2022-08-17T20:08:27.540Z,99.90
2022-08-17T20:11:00.782Z,99.90
2022-08-17T20:13:36.380Z,99.90
2022-08-17T20:16:06.639Z,99.90
2022-08-17T20:18:45.540Z,99.90
2022-08-17T20:21:20.747Z,99.90
2022-08-17T20:23:55.529Z,99.90
2022-08-17T20:26:28.935Z,99.90
2022-08-17T20:29:10.917Z,99.90
2022-08-17T20:31:46.259Z,99.90
2022-08-17T20:34:37.388Z,99.90
2022-08-17T20:37:10.462Z,99.90
2022-08-17T20:39:42.267Z,99.90
2022-08-17T20:42:31.498Z,99.90
2022-08-17T20:45:04.921Z,99.90
2022-08-17T20:47:35.630Z,99.90
2022-08-17T20:50:08.133Z,99.90
2022-08-17T20:52:52.042Z,99.90
2022-08-17T20:55:54.887Z,99.90
2022-08-17T20:58:50.064Z,99.90
2022-08-17T21:01:35.135Z,99.90
2022-08-17T21:04:09.677Z,99.90
2022-08-17T21:07:17.588Z,99.90
2022-08-17T21:09:48.120Z,99.90
2022-08-17T21:12:40.365Z,99.90
2022-08-17T21:15:22.252Z,99.90
2022-08-17T21:17:59.268Z,99.90
2022-08-17T21:20:39.628Z,99.90
2022-08-17T21:23:25.064Z,99.90
2022-08-17T21:26:11.105Z,99.90
2022-08-17T21:29:00.529Z,99.90
2022-08-17T21:31:36.518Z,99.90
2022-08-17T21:34:33.837Z,99.90
2022-08-17T21:37:29.784Z,99.90
2022-08-17T21:40:02.381Z,99.90
2022-08-17T21:42:34.536Z,99.90
2022-08-17T21:45:11.935Z,99.90
2022-08-17T21:47:43.536Z,99.90
2022-08-17T21:50:18.759Z,99.90
2022-08-17T21:52:48.262Z,99.90
2022-08-17T21:55:28.189Z,99.90
2022-08-17T21:58:14.703Z,99.90
2022-08-17T22:00:45.045Z,99.90
2022-08-17T22:03:26.039Z,99.90
2022-08-17T22:05:54.595Z,99.90
2022-08-17T22:08:27.267Z,99.90
2022-08-17T22:11:02.439Z,99.90
2022-08-17T22:13:32.444Z,99.90
2022-08-17T22:16:28.098Z,99.90
2022-08-17T22:18:59.126Z,99.90
2022-08-17T22:21:28.226Z,99.90
2022-08-17T22:24:06.328Z,99.90
2022-08-17T22:27:07.056Z,99.90
2022-08-17T22:29:53.178Z,99.90
2022-08-17T22:32:43.479Z,99.90
2022-08-17T22:35:28.577Z,99.90
2022-08-17T22:37:59.046Z,99.90
2022-08-17T22:40:30.866Z,99.90
2022-08-17T22:43:03.529Z,99.90
2022-08-17T22:45:33.918Z,99.90
2022-08-17T22:48:03.423Z,99.90
2022-08-17T22:50:34.184Z,99.90
2022-08-17T22:53:22.051Z,99.90
2022-08-17T23:02:14.860Z,99.90
2022-08-17T23:04:47.822Z,99.90
2022-08-17T23:07:17.640Z,99.90
2022-08-17T23:09:46.673Z,99.90
2022-08-17T23:12:19.264Z,99.90
2022-08-17T23:14:51.406Z,99.90
2022-08-17T23:17:22.204Z,99.90
2022-08-17T23:19:50.717Z,99.90
2022-08-17T23:22:19.285Z,99.90
2022-08-17T23:24:50.518Z,99.90
2022-08-17T23:27:20.684Z,99.90
2022-08-17T23:29:49.679Z,99.90
2022-08-17T23:32:19.814Z,99.90
2022-08-17T23:34:50.965Z,99.90
2022-08-17T23:37:21.018Z,99.90
2022-08-17T23:39:49.581Z,99.90
2022-08-17T23:42:21.785Z,99.90
2022-08-17T23:44:51.004Z,99.90
2022-08-17T23:47:19.728Z,99.90
2022-08-17T23:49:49.544Z,99.90
2022-08-17T23:52:24.452Z,99.90
2022-08-17T23:54:53.179Z,99.90
2022-08-17T23:57:33.586Z,99.90
